Terminal Aerodrome Forecast
Issued by NWS

Home | Current Version | Previous Version | Text Only | Print | Product List | Glossary On
Versions: 1 2 3 4 5 6 7 8 9 10 11 12 13 14 15 16 17 18 19 20 21 22 23 24 25 26 27 28
166
FTUS41 KBUF 232103 AAA
TAFIAG
TAF AMD
KIAG 232103Z 2321/2418 23013G22KT P6SM SKC
     FM232300 23009KT P6SM BKN250
     FM240300 05004KT P6SM BKN200
     FM240600 06005KT 6SM -SHRA OVC040
     FM241000 04005KT 6SM -SHRA OVC007
     FM241500 16005KT P6SM OVC007
     FM241700 09008KT P6SM OVC025=

USA.gov is the U.S. government's official web portal to all federal, state and local government web resources and services.